Archival Weather

Snohomish County (Paine Fld)

Everett, Washington (KPAE)

Report from: Monday, November 20, 2023 1:53 PM PST
Current time: Sunday, February 25, 2024 1:03 PM PST

Current weather – Weather history – Daily summaries
Weather forecast

Temperature8.9°C (48.0°F)
Wind chill8.3°C (47.0°F)
Dew point2.2°C (36.0°F)
Winds 3 kts (1.5 m/s, 3.5 mph) North-Northeast (30°)
Visibility10 mi. (16.1 km)
Clouds Sky clear
Altimeter30.44 in.Hg (1031 mB)
Relative humidity63 %
Density altitude-1,226 ft. (-374 m)
Sea-level pressure103.1 kPa (1031 mB, 30.45 in.Hg)
Remarks Automated weather observing station with precipitation discriminator
Flight conditions Visual Meteorological Conditions
Raw dataKPAE 202153Z 03003KT 10SM CLR 09/02 A3044 RMK AO2 SLP311 T00890022
An error has occurred. This application may no longer respond until reloaded. Reload 🗙